Terminal Aerodrome Forecast
Issued by NWS Milwaukee/Sullivan, WI

Home | Current Version | Previous Version | Text Only | Print | Product List | Glossary On
Versions: 1 2 3 4 5 6 7 8 9 10 11 12 13 14 15 16 17 18 19 20 21 22 23 24 25 26 27 28 29 30 31 32 33 34 35 36
000
FTUS43 KMKX 040904 AAD
TAFMKE
TAF AMD
KMKE 040904Z 0409/0512 02018G25KT P6SM SCT009 BKN017 OVC025
     FM041300 02016G26KT P6SM SCT015 BKN022
     FM041800 36015G23KT P6SM BKN035
     FM050100 36009KT P6SM BKN090
     FM050300 35009KT P6SM SCT090=

USA.gov is the U.S. government's official web portal to all federal, state and local government web resources and services.